Time;durP1;ratioP1;P1;durP2;ratioP2;P2;SDS_P1;SDS_P2;PMS_P1;PMS_P2;Temp;Humidity;BMP_temperature;BMP_pressure;BME280_temperature;BME280_humidity;BME280_pressure;Samples;Min_cycle;Max_cycle;Signal;HPM_P1;HPM_P2
2021/04/09 00:01:13;;;;;;;4.20;1.83;;;;;;;;;;5038266;28;20022;-76
2021/04/09 00:03:38;;;;;;;6.05;1.80;;;;;;;;;;5038094;28;20457;-76
2021/04/09 00:06:04;;;;;;;6.60;1.95;;;;;;;;;;5037213;28;20049;-76
2021/04/09 00:08:29;;;;;;;6.60;1.80;;;;;;;;;;5038986;28;20120;-76
2021/04/09 00:10:54;;;;;;;3.95;2.00;;;;;;;;;;5038165;28;20026;-76
2021/04/09 00:13:20;;;;;;;5.35;2.05;;;;;;;;;;5036212;28;20448;-75
2021/04/09 00:15:45;;;;;;;7.93;1.80;;;;;;;;;;5035904;28;20121;-75
2021/04/09 00:18:11;;;;;;;6.90;2.20;;;;;;;;;;5035926;28;20109;-76
2021/04/09 00:20:36;;;;;;;7.75;2.10;;;;;;;;;;5025392;28;20025;-75
2021/04/09 00:23:02;;;;;;;4.35;1.88;;;;;;;;;;5018362;28;20030;-75
2021/04/09 00:25:27;;;;;;;4.47;1.92;;;;;;;;;;5015866;28;20038;-76
2021/04/09 00:27:53;;;;;;;5.45;2.08;;;;;;;;;;5023569;28;20124;-75
2021/04/09 00:30:26;;;;;;;6.50;1.95;;;;;;;;;;5023177;28;20029;-75
2021/04/09 00:32:51;;;;;;;4.90;1.75;;;;;;;;;;5036453;28;20480;-75
2021/04/09 00:35:17;;;;;;;4.85;1.95;;;;;;;;;;5006262;28;20117;-76
2021/04/09 00:37:43;;;;;;;6.13;2.10;;;;;;;;;;5014836;28;20500;-75
2021/04/09 00:40:11;;;;;;;6.10;1.98;;;;;;;;;;5035015;28;20495;-76
2021/04/09 00:42:36;;;;;;;7.80;2.30;;;;;;;;;;5015560;28;20425;-76
2021/04/09 00:45:03;;;;;;;7.93;2.40;;;;;;;;;;5024676;28;20028;-76
2021/04/09 00:47:29;;;;;;;9.20;2.00;;;;;;;;;;5018520;28;20088;-75
2021/04/09 00:49:54;;;;;;;5.78;2.03;;;;;;;;;;5017421;28;20108;-75
2021/04/09 00:52:21;;;;;;;5.32;2.10;;;;;;;;;;5016920;28;20386;-76
2021/04/09 00:54:46;;;;;;;5.40;2.38;;;;;;;;;;5016993;28;20111;-76
2021/04/09 00:57:12;;;;;;;6.20;2.20;;;;;;;;;;5015170;28;20460;-76
2021/04/09 00:59:38;;;;;;;5.38;1.98;;;;;;;;;;5015604;28;20458;-75
2021/04/09 01:02:03;;;;;;;5.55;2.10;;;;;;;;;;5014976;28;20029;-76
2021/04/09 01:04:29;;;;;;;8.50;2.33;;;;;;;;;;5023263;28;20104;-76
2021/04/09 01:06:55;;;;;;;6.18;2.40;;;;;;;;;;5026064;28;20030;-76
2021/04/09 01:09:20;;;;;;;8.45;2.40;;;;;;;;;;5015194;28;20436;-76
2021/04/09 01:11:46;;;;;;;6.25;2.50;;;;;;;;;;5022320;28;20029;-76
2021/04/09 01:14:11;;;;;;;8.13;2.22;;;;;;;;;;5035175;28;20029;-76
2021/04/09 01:16:47;;;;;;;10.20;2.88;;;;;;;;;;5034099;28;20087;-76
2021/04/09 01:19:31;;;;;;;9.80;2.63;;;;;;;;;;5034279;28;20040;-77
2021/04/09 01:22:06;;;;;;;8.60;2.30;;;;;;;;;;5034094;28;20500;-76
2021/04/09 01:24:50;;;;;;;6.18;2.55;;;;;;;;;;5033704;28;20033;-76
2021/04/09 01:27:24;;;;;;;9.90;2.70;;;;;;;;;;5034164;28;20108;-75
2021/04/09 01:30:08;;;;;;;10.30;2.90;;;;;;;;;;5031281;28;20029;-76
2021/04/09 01:32:33;;;;;;;8.05;2.65;;;;;;;;;;5033925;28;20108;-76
2021/04/09 01:35:06;;;;;;;7.15;2.35;;;;;;;;;;5034053;28;20471;-77
2021/04/09 01:37:40;;;;;;;7.63;2.50;;;;;;;;;;5030772;28;20051;-77
2021/04/09 01:40:21;;;;;;;7.68;2.35;;;;;;;;;;5027267;28;20032;-76
2021/04/09 01:42:51;;;;;;;8.85;2.80;;;;;;;;;;5024612;28;20053;-76
2021/04/09 01:45:19;;;;;;;8.70;2.88;;;;;;;;;;5035045;28;20087;-76
2021/04/09 01:47:45;;;;;;;9.30;2.63;;;;;;;;;;5034621;28;20039;-76
2021/04/09 01:50:14;;;;;;;7.93;2.45;;;;;;;;;;5033846;28;20392;-76
2021/04/09 01:52:42;;;;;;;8.77;2.20;;;;;;;;;;5033570;28;20029;-76
2021/04/09 01:55:09;;;;;;;6.60;2.47;;;;;;;;;;5033374;28;20036;-76
2021/04/09 01:57:37;;;;;;;12.63;2.80;;;;;;;;;;5033228;28;20067;-76
2021/04/09 02:00:05;;;;;;;7.15;2.17;;;;;;;;;;5032443;28;20454;-76
2021/04/09 02:02:31;;;;;;;11.20;2.70;;;;;;;;;;5033496;28;20478;-76
2021/04/09 02:04:57;;;;;;;9.90;2.70;;;;;;;;;;5033105;28;20086;-77
2021/04/09 02:07:23;;;;;;;7.28;2.67;;;;;;;;;;5032181;28;20029;-76
2021/04/09 02:09:49;;;;;;;6.57;2.50;;;;;;;;;;5032936;28;20033;-76
2021/04/09 02:12:16;;;;;;;9.43;2.25;;;;;;;;;;5024810;28;20038;-77
2021/04/09 02:14:43;;;;;;;7.75;2.20;;;;;;;;;;5013349;28;20492;-77
2021/04/09 02:17:12;;;;;;;13.15;3.35;;;;;;;;;;5013274;28;20032;-76
2021/04/09 02:19:42;;;;;;;8.35;2.92;;;;;;;;;;5013478;28;20061;-76
2021/04/09 02:22:07;;;;;;;7.55;3.03;;;;;;;;;;5013395;28;20137;-76
2021/04/09 02:24:33;;;;;;;7.03;2.50;;;;;;;;;;5012893;28;20498;-76
2021/04/09 02:27:00;;;;;;;6.65;2.92;;;;;;;;;;5013106;28;20112;-77
2021/04/09 02:29:26;;;;;;;9.85;3.28;;;;;;;;;;5014463;28;20036;-77
2021/04/09 02:31:52;;;;;;;10.02;2.38;;;;;;;;;;5030728;28;20568;-76
2021/04/09 02:34:19;;;;;;;8.23;2.60;;;;;;;;;;5032981;28;20159;-77
2021/04/09 02:36:44;;;;;;;7.95;2.70;;;;;;;;;;5031960;28;20116;-76
2021/04/09 02:39:17;;;;;;;7.72;2.50;;;;;;;;;;5032397;28;20447;-77
2021/04/09 02:41:47;;;;;;;7.32;2.45;;;;;;;;;;5032423;28;20029;-77
2021/04/09 02:44:13;;;;;;;6.30;2.22;;;;;;;;;;5032589;28;20022;-78
2021/04/09 02:47:27;;;;;;;6.57;2.25;;;;;;;;;;5032737;28;20036;-76
2021/04/09 02:50:15;;;;;;;6.97;2.30;;;;;;;;;;4952184;29;20043;-76
2021/04/09 02:53:02;;;;;;;6.70;2.25;;;;;;;;;;4951984;29;20038;-76
2021/04/09 02:55:33;;;;;;;7.80;2.50;;;;;;;;;;4952503;29;20107;-76
2021/04/09 02:58:03;;;;;;;5.43;2.10;;;;;;;;;;4934337;29;20031;-77
2021/04/09 03:00:29;;;;;;;7.22;2.00;;;;;;;;;;4943332;29;20578;-76
2021/04/09 03:02:55;;;;;;;8.02;2.55;;;;;;;;;;4951527;29;20031;-76
2021/04/09 03:05:20;;;;;;;7.65;2.85;;;;;;;;;;4951989;29;20481;-76
2021/04/09 03:07:46;;;;;;;6.28;2.25;;;;;;;;;;4951771;28;20088;-75
2021/04/09 03:10:15;;;;;;;7.60;2.30;;;;;;;;;;4951560;29;20074;-77
2021/04/09 03:12:41;;;;;;;7.60;2.47;;;;;;;;;;4952195;29;20031;-76
2021/04/09 03:15:10;;;;;;;6.10;2.22;;;;;;;;;;4950536;29;20067;-76
2021/04/09 03:17:44;;;;;;;7.45;2.38;;;;;;;;;;4951689;29;20114;-76
2021/04/09 03:20:10;;;;;;;5.20;2.50;;;;;;;;;;4974426;28;20046;-76
2021/04/09 03:22:35;;;;;;;7.28;2.20;;;;;;;;;;5012366;28;20030;-77
2021/04/09 03:25:00;;;;;;;5.53;1.90;;;;;;;;;;5012588;28;20168;-76
2021/04/09 03:27:26;;;;;;;5.20;2.38;;;;;;;;;;5014445;28;20607;-76
2021/04/09 03:29:51;;;;;;;8.00;1.90;;;;;;;;;;5020602;28;20036;-76
2021/04/09 03:32:17;;;;;;;9.30;2.53;;;;;;;;;;5032151;28;20391;-75
2021/04/09 03:34:43;;;;;;;8.95;2.03;;;;;;;;;;5032187;28;20032;-76
2021/04/09 03:37:09;;;;;;;6.45;2.28;;;;;;;;;;5031898;28;20037;-76
2021/04/09 03:39:36;;;;;;;6.20;2.47;;;;;;;;;;5032422;28;20432;-76
2021/04/09 03:42:02;;;;;;;7.50;2.30;;;;;;;;;;5023157;28;20054;-76
2021/04/09 03:44:28;;;;;;;7.68;2.33;;;;;;;;;;5012548;28;20138;-76
2021/04/09 03:46:53;;;;;;;7.22;2.50;;;;;;;;;;5019848;28;20105;-76
2021/04/09 03:49:19;;;;;;;5.88;2.17;;;;;;;;;;5011761;28;20033;-76
2021/04/09 03:51:44;;;;;;;5.03;2.13;;;;;;;;;;5012279;28;20037;-76
2021/04/09 03:54:10;;;;;;;6.68;2.13;;;;;;;;;;5011908;28;20060;-76
2021/04/09 03:56:36;;;;;;;7.03;2.60;;;;;;;;;;5011989;28;20037;-76
2021/04/09 03:59:01;;;;;;;6.57;2.10;;;;;;;;;;5012377;28;20359;-76
2021/04/09 04:01:28;;;;;;;6.13;1.90;;;;;;;;;;5031814;28;20033;-76
2021/04/09 04:03:53;;;;;;;6.72;2.20;;;;;;;;;;5032091;28;20108;-75
2021/04/09 04:06:19;;;;;;;7.20;2.20;;;;;;;;;;5031606;28;20465;-76
2021/04/09 04:08:45;;;;;;;9.95;2.50;;;;;;;;;;5031865;28;20113;-76
2021/04/09 04:11:10;;;;;;;7.60;1.95;;;;;;;;;;5002236;28;20034;-76
2021/04/09 04:13:36;;;;;;;8.48;2.10;;;;;;;;;;5024593;28;20087;-76
2021/04/09 04:16:01;;;;;;;8.93;2.10;;;;;;;;;;5023050;28;20033;-76
2021/04/09 04:18:27;;;;;;;6.68;2.10;;;;;;;;;;5031464;28;20104;-75
2021/04/09 04:20:52;;;;;;;8.80;2.47;;;;;;;;;;5033984;28;20025;-76
2021/04/09 04:23:18;;;;;;;6.13;2.65;;;;;;;;;;5035055;28;20481;-76
2021/04/09 04:25:44;;;;;;;5.35;1.92;;;;;;;;;;5035493;28;20489;-77
2021/04/09 04:28:09;;;;;;;4.32;2.25;;;;;;;;;;5034968;28;20029;-75
2021/04/09 04:30:35;;;;;;;4.97;1.80;;;;;;;;;;5023489;28;20629;-76
2021/04/09 04:33:00;;;;;;;7.43;2.40;;;;;;;;;;5015163;28;20596;-76
2021/04/09 04:35:26;;;;;;;4.63;1.92;;;;;;;;;;5015257;28;20683;-78
2021/04/09 04:37:51;;;;;;;5.68;2.47;;;;;;;;;;5021356;28;20032;-78
2021/04/09 04:40:17;;;;;;;6.95;2.30;;;;;;;;;;5034773;28;20031;-76
2021/04/09 04:42:42;;;;;;;6.65;2.20;;;;;;;;;;5019087;28;20067;-76
2021/04/09 04:45:08;;;;;;;6.50;2.05;;;;;;;;;;5014980;28;20030;-76
2021/04/09 04:47:34;;;;;;;5.05;2.10;;;;;;;;;;5031439;28;20079;-76
2021/04/09 04:49:59;;;;;;;6.88;1.95;;;;;;;;;;5034747;28;20420;-76
2021/04/09 04:52:25;;;;;;;4.47;2.17;;;;;;;;;;5034485;28;20489;-76
2021/04/09 04:54:50;;;;;;;6.45;2.17;;;;;;;;;;5034792;28;20032;-76
2021/04/09 04:57:16;;;;;;;6.55;1.88;;;;;;;;;;5034367;28;20036;-76
2021/04/09 04:59:41;;;;;;;6.22;1.90;;;;;;;;;;5031368;28;20037;-76
2021/04/09 05:02:06;;;;;;;6.05;2.13;;;;;;;;;;5017652;28;20040;-76
2021/04/09 05:04:32;;;;;;;8.15;2.10;;;;;;;;;;5014666;28;20025;-76
2021/04/09 05:06:57;;;;;;;5.15;2.10;;;;;;;;;;5014109;28;20481;-76
2021/04/09 05:09:23;;;;;;;5.00;2.00;;;;;;;;;;5014556;28;20061;-76
2021/04/09 05:11:48;;;;;;;5.60;1.85;;;;;;;;;;5027664;28;20036;-76
2021/04/09 05:14:14;;;;;;;5.57;2.30;;;;;;;;;;5034060;28;20030;-76
2021/04/09 05:16:39;;;;;;;7.18;2.40;;;;;;;;;;5034320;28;20086;-76
2021/04/09 05:19:04;;;;;;;5.32;2.00;;;;;;;;;;5034729;28;20025;-76
2021/04/09 05:21:31;;;;;;;4.68;2.25;;;;;;;;;;5033954;28;20027;-76
2021/04/09 05:23:56;;;;;;;6.97;1.80;;;;;;;;;;5034364;28;20021;-75
2021/04/09 05:26:22;;;;;;;4.72;2.00;;;;;;;;;;5034110;28;20091;-76
2021/04/09 05:28:47;;;;;;;6.53;2.33;;;;;;;;;;5030738;28;20018;-76
2021/04/09 05:31:12;;;;;;;8.85;2.25;;;;;;;;;;5026346;28;20028;-76
2021/04/09 05:33:38;;;;;;;7.63;2.47;;;;;;;;;;5018465;28;20022;-77
2021/04/09 05:36:04;;;;;;;7.30;2.58;;;;;;;;;;5024872;28;20100;-76
2021/04/09 05:38:29;;;;;;;5.40;1.83;;;;;;;;;;5033822;28;20493;-76
2021/04/09 05:40:57;;;;;;;6.55;2.10;;;;;;;;;;5033950;28;20100;-76
2021/04/09 05:43:23;;;;;;;6.25;2.58;;;;;;;;;;5033273;28;20463;-77
2021/04/09 05:45:48;;;;;;;7.10;2.85;;;;;;;;;;5033449;28;20033;-75
2021/04/09 05:48:14;;;;;;;4.40;2.10;;;;;;;;;;5028599;28;20025;-77
2021/04/09 05:50:39;;;;;;;6.85;2.00;;;;;;;;;;5026860;28;20131;-76
2021/04/09 05:53:05;;;;;;;7.25;2.78;;;;;;;;;;5019567;28;20466;-76
2021/04/09 05:55:30;;;;;;;9.75;2.60;;;;;;;;;;5022657;28;20014;-75
2021/04/09 05:57:56;;;;;;;9.95;3.60;;;;;;;;;;5023416;28;20033;-75
2021/04/09 06:00:22;;;;;;;5.15;2.70;;;;;;;;;;5020990;28;20111;-77
2021/04/09 06:02:47;;;;;;;6.78;2.50;;;;;;;;;;5023741;28;20101;-75
2021/04/09 06:05:13;;;;;;;6.60;2.05;;;;;;;;;;5017538;28;20108;-76
2021/04/09 06:07:39;;;;;;;5.65;2.10;;;;;;;;;;5015377;28;20022;-76
2021/04/09 06:10:05;;;;;;;3.92;2.00;;;;;;;;;;5018030;28;20059;-76
2021/04/09 06:12:31;;;;;;;8.07;2.30;;;;;;;;;;5019338;28;20014;-75
2021/04/09 06:14:56;;;;;;;6.28;1.92;;;;;;;;;;5021250;28;20401;-77
2021/04/09 06:17:22;;;;;;;8.70;2.17;;;;;;;;;;5020871;28;20576;-76
2021/04/09 06:19:47;;;;;;;6.53;1.98;;;;;;;;;;5023165;28;20526;-76
2021/04/09 06:22:14;;;;;;;6.68;2.38;;;;;;;;;;5001179;28;20025;-76
2021/04/09 06:24:40;;;;;;;6.53;1.95;;;;;;;;;;5020607;28;20440;-76
2021/04/09 06:27:07;;;;;;;5.57;1.90;;;;;;;;;;5007948;28;20021;-75
2021/04/09 06:29:32;;;;;;;4.38;1.85;;;;;;;;;;5024001;28;20099;-76
2021/04/09 06:31:58;;;;;;;7.90;2.03;;;;;;;;;;5023565;28;20033;-76
2021/04/09 06:34:23;;;;;;;4.72;1.70;;;;;;;;;;5023958;28;20021;-76
2021/04/09 06:36:49;;;;;;;3.35;1.67;;;;;;;;;;5024570;28;20076;-76
2021/04/09 06:39:14;;;;;;;7.93;2.33;;;;;;;;;;5024173;28;20024;-77
2021/04/09 06:41:40;;;;;;;9.15;2.47;;;;;;;;;;5022934;28;20030;-76
2021/04/09 06:44:06;;;;;;;10.07;6.60;;;;;;;;;;5020074;28;20478;-77
2021/04/09 06:46:33;;;;;;;4.93;1.65;;;;;;;;;;5028441;28;20025;-75
2021/04/09 06:48:59;;;;;;;5.90;1.90;;;;;;;;;;5032743;28;20025;-76
2021/04/09 06:51:25;;;;;;;6.13;1.85;;;;;;;;;;5033084;28;20033;-76
2021/04/09 06:53:52;;;;;;;5.50;2.00;;;;;;;;;;5009779;28;20029;-76
2021/04/09 06:56:19;;;;;;;5.30;1.88;;;;;;;;;;5013060;28;20022;-76
2021/04/09 06:58:48;;;;;;;7.50;2.10;;;;;;;;;;5012584;28;20025;-77
2021/04/09 07:01:16;;;;;;;6.07;1.90;;;;;;;;;;5012153;28;20026;-75
2021/04/09 07:03:42;;;;;;;3.15;1.77;;;;;;;;;;5021795;28;20025;-75
2021/04/09 07:06:08;;;;;;;5.55;2.13;;;;;;;;;;5031798;28;20104;-76
2021/04/09 07:08:42;;;;;;;6.38;2.70;;;;;;;;;;5013076;28;20022;-77
2021/04/09 07:11:08;;;;;;;4.97;1.90;;;;;;;;;;4994800;28;20033;-75
2021/04/09 07:13:46;;;;;;;9.52;2.00;;;;;;;;;;5012688;28;20038;-75
2021/04/09 07:16:12;;;;;;;4.90;1.73;;;;;;;;;;5012763;28;20030;-76
2021/04/09 07:18:55;;;;;;;4.03;1.77;;;;;;;;;;4995186;28;20026;-75
2021/04/09 07:21:31;;;;;;;4.95;2.03;;;;;;;;;;5012466;28;20083;-74
2021/04/09 07:24:23;;;;;;;7.57;2.05;;;;;;;;;;5012293;28;20030;-77
2021/04/09 07:26:51;;;;;;;6.88;2.60;;;;;;;;;;4990997;28;20064;-76
2021/04/09 07:29:48;;;;;;;6.07;1.80;;;;;;;;;;5012217;28;20467;-76
2021/04/09 07:32:15;;;;;;;6.55;1.98;;;;;;;;;;4956026;28;20081;-75
2021/04/09 07:35:04;;;;;;;4.68;1.85;;;;;;;;;;4951016;28;20148;-76
2021/04/09 07:37:32;;;;;;;5.03;1.80;;;;;;;;;;4951711;29;20044;-76
2021/04/09 07:40:00;;;;;;;4.60;1.90;;;;;;;;;;4951423;29;20069;-77
2021/04/09 07:42:37;;;;;;;5.35;1.42;;;;;;;;;;4964033;28;20046;-76
2021/04/09 07:45:11;;;;;;;5.13;1.77;;;;;;;;;;4990105;28;20105;-77
2021/04/09 07:47:39;;;;;;;6.30;3.03;;;;;;;;;;4990190;28;20042;-76
2021/04/09 07:50:12;;;;;;;4.43;1.70;;;;;;;;;;4989833;28;20527;-77
2021/04/09 07:52:43;;;;;;;4.13;1.92;;;;;;;;;;4989569;28;20045;-76
2021/04/09 07:55:12;;;;;;;9.05;2.05;;;;;;;;;;4991572;28;20034;-78
2021/04/09 07:57:38;;;;;;;3.97;1.83;;;;;;;;;;5001089;28;20387;-77
2021/04/09 08:00:19;;;;;;;6.25;2.25;;;;;;;;;;4993410;28;20026;-77
2021/04/09 08:02:45;;;;;;;7.03;1.85;;;;;;;;;;4989533;28;20113;-78
2021/04/09 08:05:13;;;;;;;4.78;1.65;;;;;;;;;;4982641;28;20133;-77
2021/04/09 08:07:41;;;;;;;7.22;1.73;;;;;;;;;;5004271;28;20041;-77
2021/04/09 08:10:07;;;;;;;4.95;1.65;;;;;;;;;;5043834;28;20036;-77
2021/04/09 08:12:35;;;;;;;5.05;3.58;;;;;;;;;;5049929;28;20025;-77
2021/04/09 08:15:35;;;;;;;5.60;2.42;;;;;;;;;;5051222;28;20052;-76
2021/04/09 08:18:07;;;;;;;4.97;2.10;;;;;;;;;;5037081;28;20025;-77
2021/04/09 08:20:43;;;;;;;6.15;2.25;;;;;;;;;;5053914;28;20025;-76
2021/04/09 08:23:12;;;;;;;6.63;1.88;;;;;;;;;;5046487;28;20020;-77
2021/04/09 08:25:38;;;;;;;6.15;2.20;;;;;;;;;;5048431;28;20026;-77
2021/04/09 08:28:06;;;;;;;6.45;1.73;;;;;;;;;;5053131;28;20054;-76
2021/04/09 08:30:32;;;;;;;5.03;2.13;;;;;;;;;;5042346;28;20040;-78
2021/04/09 08:32:59;;;;;;;4.63;1.70;;;;;;;;;;5048726;28;20036;-78
2021/04/09 08:35:26;;;;;;;7.50;1.73;;;;;;;;;;5048189;28;20476;-75
2021/04/09 08:37:54;;;;;;;4.75;1.83;;;;;;;;;;5044929;28;20025;-76
2021/04/09 08:40:20;;;;;;;5.50;1.73;;;;;;;;;;5051035;28;20029;-77
2021/04/09 08:42:46;;;;;;;6.85;1.77;;;;;;;;;;5039859;28;20046;-77
2021/04/09 08:45:14;;;;;;;6.40;1.73;;;;;;;;;;5016149;28;20505;-76
2021/04/09 08:47:41;;;;;;;9.73;2.33;;;;;;;;;;5008245;28;20030;-75
2021/04/09 08:50:12;;;;;;;3.22;1.40;;;;;;;;;;5023061;28;20064;-76
2021/04/09 08:52:46;;;;;;;8.93;1.52;;;;;;;;;;5021275;28;20065;-76
2021/04/09 08:55:13;;;;;;;6.90;1.60;;;;;;;;;;5024326;28;20489;-76
2021/04/09 08:57:42;;;;;;;7.90;1.65;;;;;;;;;;5030792;28;20071;-77
2021/04/09 09:00:24;;;;;;;4.53;1.35;;;;;;;;;;5024404;28;20029;-76
2021/04/09 09:02:51;;;;;;;4.10;1.30;;;;;;;;;;5020403;28;20045;-77
2021/04/09 09:05:21;;;;;;;5.30;1.40;;;;;;;;;;5021975;28;20051;-78
2021/04/09 09:07:51;;;;;;;3.95;1.40;;;;;;;;;;5026708;28;20026;-75
2021/04/09 09:10:22;;;;;;;5.70;1.58;;;;;;;;;;5020310;28;20026;-78
2021/04/09 09:13:03;;;;;;;8.27;1.95;;;;;;;;;;5023513;28;20394;-76
2021/04/09 09:15:46;;;;;;;7.15;1.92;;;;;;;;;;5029824;28;20025;-76
2021/04/09 09:21:11;;;;;;;5.60;1.65;;;;;;;;;;5028780;28;20029;-77
2021/04/09 09:23:56;;;;;;;8.23;1.75;;;;;;;;;;5025679;28;20030;-78
2021/04/09 09:26:30;;;;;;;3.45;1.33;;;;;;;;;;5018187;28;20018;-77
2021/04/09 09:29:11;;;;;;;4.30;1.45;;;;;;;;;;5028704;28;20051;-76
2021/04/09 09:31:42;;;;;;;3.97;1.40;;;;;;;;;;5026801;28;20021;-77
2021/04/09 09:34:16;;;;;;;5.78;1.92;;;;;;;;;;5018444;28;20026;-76
2021/04/09 09:37:07;;;;;;;6.90;1.70;;;;;;;;;;5021667;28;20026;-77
2021/04/09 09:39:58;;;;;;;4.80;1.70;;;;;;;;;;5025139;28;20033;-75
2021/04/09 09:42:25;;;;;;;6.82;1.70;;;;;;;;;;5011477;28;20476;-78
2021/04/09 09:44:52;;;;;;;8.90;1.73;;;;;;;;;;5047238;28;20029;-78
2021/04/09 09:47:20;;;;;;;6.03;1.35;;;;;;;;;;5036831;28;20032;-79
2021/04/09 09:50:19;;;;;;;5.18;1.70;;;;;;;;;;5049985;28;20024;-76
2021/04/09 09:53:03;;;;;;;7.10;1.58;;;;;;;;;;5048681;28;20112;-76
2021/04/09 09:55:43;;;;;;;5.68;1.40;;;;;;;;;;5044805;28;20025;-77
2021/04/09 09:58:13;;;;;;;10.48;1.80;;;;;;;;;;5047427;28;20070;-77
2021/04/09 10:00:44;;;;;;;4.93;1.70;;;;;;;;;;5049665;28;20039;-76
2021/04/09 10:03:14;;;;;;;;;;;;;;;;;;5042550;28;20472;-77
2021/04/09 10:05:42;;;;;;;4.18;1.20;;;;;;;;;;5040936;28;19993;-78
2021/04/09 10:08:08;;;;;;;9.82;1.65;;;;;;;;;;5037291;28;20037;-78
2021/04/09 10:10:50;;;;;;;4.90;1.40;;;;;;;;;;5047862;28;20029;-76
2021/04/09 10:13:19;;;;;;;5.35;1.50;;;;;;;;;;5035203;28;20018;-76
2021/04/09 10:15:45;;;;;;;4.32;1.60;;;;;;;;;;5035392;28;20033;-75
2021/04/09 10:18:11;;;;;;;5.82;1.23;;;;;;;;;;5040841;28;20366;-77
2021/04/09 10:20:36;;;;;;;6.13;1.75;;;;;;;;;;5033369;28;20037;-79
2021/04/09 10:23:02;;;;;;;3.00;1.30;;;;;;;;;;5040122;28;20021;-75
2021/04/09 10:25:29;;;;;;;6.47;1.83;;;;;;;;;;5049823;28;20027;-77
2021/04/09 10:27:54;;;;;;;8.45;1.70;;;;;;;;;;5038203;28;20140;-77
2021/04/09 10:30:28;;;;;;;10.48;1.80;;;;;;;;;;5043928;28;20120;-76
2021/04/09 10:32:54;;;;;;;8.10;1.77;;;;;;;;;;5046797;28;20068;-77
2021/04/09 10:35:26;;;;;;;4.90;1.98;;;;;;;;;;5043762;28;20071;-75
2021/04/09 10:38:15;;;;;;;5.82;1.65;;;;;;;;;;5040350;28;20029;-76
2021/04/09 10:40:55;;;;;;;4.47;2.22;;;;;;;;;;5042113;28;20036;-77
2021/04/09 10:43:34;;;;;;;6.43;1.80;;;;;;;;;;5029894;28;20050;-78
2021/04/09 10:46:10;;;;;;;7.85;4.05;;;;;;;;;;5015974;28;20367;-75
2021/04/09 10:48:36;;;;;;;6.05;1.75;;;;;;;;;;5026907;28;20452;-78
2021/04/09 10:51:02;;;;;;;3.30;1.38;;;;;;;;;;5018080;28;20090;-78
2021/04/09 10:53:27;;;;;;;5.30;1.55;;;;;;;;;;5031824;28;20044;-79
2021/04/09 10:56:00;;;;;;;4.85;1.58;;;;;;;;;;5026011;28;20497;-80
2021/04/09 10:58:26;;;;;;;5.43;2.30;;;;;;;;;;5024265;28;20103;-76
2021/04/09 11:00:51;;;;;;;5.97;1.83;;;;;;;;;;5016519;28;20061;-76
2021/04/09 11:03:17;;;;;;;5.28;2.53;;;;;;;;;;5023037;28;20025;-77
2021/04/09 11:05:43;;;;;;;4.18;1.80;;;;;;;;;;5026932;28;20405;-79
2021/04/09 11:08:08;;;;;;;6.85;1.92;;;;;;;;;;5020741;28;20390;-76
2021/04/09 11:10:36;;;;;;;3.70;1.40;;;;;;;;;;5029311;28;20014;-77
2021/04/09 11:13:02;;;;;;;6.10;2.00;;;;;;;;;;5024959;28;20112;-77
2021/04/09 11:15:41;;;;;;;7.38;1.50;;;;;;;;;;5025294;28;20104;-79
2021/04/09 11:18:07;;;;;;;4.85;1.92;;;;;;;;;;5029193;28;20033;-77
2021/04/09 11:20:36;;;;;;;2.90;1.20;;;;;;;;;;5024106;28;20021;-76
2021/04/09 11:23:04;;;;;;;5.80;1.33;;;;;;;;;;5024552;28;20493;-76
2021/04/09 11:25:35;;;;;;;8.15;1.70;;;;;;;;;;5020405;28;20021;-78
2021/04/09 11:28:02;;;;;;;8.02;1.73;;;;;;;;;;5004797;28;20489;-78
2021/04/09 11:30:35;;;;;;;5.75;1.50;;;;;;;;;;5026127;28;20485;-78
2021/04/09 11:33:02;;;;;;;6.68;1.40;;;;;;;;;;5026006;28;20105;-78
2021/04/09 11:35:34;;;;;;;5.10;1.38;;;;;;;;;;5028586;28;20039;-78
2021/04/09 11:38:06;;;;;;;6.40;1.30;;;;;;;;;;5028230;28;20029;-78
2021/04/09 11:40:42;;;;;;;3.17;1.33;;;;;;;;;;5030158;28;20033;-75
2021/04/09 11:43:13;;;;;;;5.60;1.50;;;;;;;;;;5022971;28;20076;-77
2021/04/09 11:45:39;;;;;;;12.05;1.85;;;;;;;;;;5034051;28;20025;-78
2021/04/09 11:48:24;;;;;;;8.10;1.73;;;;;;;;;;5016699;28;20117;-77
2021/04/09 11:50:50;;;;;;;6.93;1.60;;;;;;;;;;5019614;28;20030;-75
2021/04/09 11:53:16;;;;;;;7.03;1.58;;;;;;;;;;5019450;28;20040;-76
2021/04/09 11:55:44;;;;;;;7.50;1.38;;;;;;;;;;5009670;28;20027;-76
2021/04/09 11:58:17;;;;;;;4.13;1.60;;;;;;;;;;5025527;28;20029;-76
2021/04/09 12:00:53;;;;;;;5.50;1.45;;;;;;;;;;4999263;28;20030;-78
2021/04/09 12:03:18;;;;;;;4.03;1.52;;;;;;;;;;5016468;28;20026;-78
2021/04/09 12:05:44;;;;;;;10.38;1.90;;;;;;;;;;5033421;28;20032;-80
2021/04/09 12:08:09;;;;;;;5.15;1.95;;;;;;;;;;5015044;28;20026;-78
2021/04/09 12:10:40;;;;;;;3.25;1.13;;;;;;;;;;5030508;28;20064;-77
2021/04/09 12:13:05;;;;;;;5.70;1.35;;;;;;;;;;5024006;28;20025;-80
2021/04/09 12:15:31;;;;;;;4.30;1.35;;;;;;;;;;5016141;28;20489;-77
2021/04/09 12:17:56;;;;;;;3.80;1.58;;;;;;;;;;5020400;28;20026;-80
2021/04/09 12:20:26;;;;;;;5.32;2.30;;;;;;;;;;5020701;28;20101;-79
2021/04/09 12:22:52;;;;;;;4.22;1.20;;;;;;;;;;5026441;28;20481;-79
2021/04/09 12:25:19;;;;;;;4.90;1.90;;;;;;;;;;5032561;28;20022;-80
2021/04/09 12:27:46;;;;;;;8.85;1.75;;;;;;;;;;5030329;28;20059;-78
2021/04/09 12:30:13;;;;;;;3.50;1.13;;;;;;;;;;5021544;28;20025;-79
2021/04/09 12:32:39;;;;;;;3.63;1.70;;;;;;;;;;5009398;28;20029;-79
2021/04/09 12:35:06;;;;;;;4.05;2.60;;;;;;;;;;5015866;28;20064;-77
2021/04/09 12:37:33;;;;;;;6.95;1.70;;;;;;;;;;5023992;28;20485;-77
2021/04/09 12:39:59;;;;;;;4.13;1.42;;;;;;;;;;5029122;28;20080;-78
2021/04/09 12:42:25;;;;;;;5.85;1.23;;;;;;;;;;5030582;28;20041;-78
2021/04/09 12:44:53;;;;;;;2.70;1.13;;;;;;;;;;5032184;28;20044;-77
2021/04/09 12:47:20;;;;;;;5.10;1.25;;;;;;;;;;5027446;28;20041;-77
2021/04/09 12:49:45;;;;;;;3.75;1.33;;;;;;;;;;5028868;28;20155;-78
2021/04/09 12:52:12;;;;;;;4.47;1.38;;;;;;;;;;5027233;28;20104;-81
2021/04/09 12:54:37;;;;;;;5.97;1.52;;;;;;;;;;5029012;28;20033;-75
2021/04/09 12:57:03;;;;;;;5.32;2.00;;;;;;;;;;5028291;28;20029;-77
2021/04/09 12:59:28;;;;;;;2.67;1.00;;;;;;;;;;5028635;28;20026;-76
2021/04/09 13:01:54;;;;;;;5.60;1.20;;;;;;;;;;5023179;28;20056;-79
2021/04/09 13:04:19;;;;;;;3.97;1.48;;;;;;;;;;5000421;28;20076;-78
2021/04/09 13:06:45;;;;;;;5.53;1.73;;;;;;;;;;5027209;28;20373;-78
2021/04/09 13:09:10;;;;;;;8.35;1.50;;;;;;;;;;5008871;28;20034;-76
2021/04/09 13:11:36;;;;;;;2.90;1.30;;;;;;;;;;5024356;28;20072;-79
2021/04/09 13:14:02;;;;;;;14.23;10.27;;;;;;;;;;5031479;28;20112;-79
2021/04/09 13:16:28;;;;;;;5.60;2.08;;;;;;;;;;5030971;28;20025;-78
2021/04/09 13:18:53;;;;;;;13.27;1.77;;;;;;;;;;5025646;28;20079;-77
2021/04/09 13:21:20;;;;;;;4.63;1.30;;;;;;;;;;5028064;28;20033;-78
2021/04/09 13:23:46;;;;;;;3.15;1.10;;;;;;;;;;5028060;28;20037;-79
2021/04/09 13:26:11;;;;;;;6.43;1.20;;;;;;;;;;5022754;28;20104;-79
2021/04/09 13:28:36;;;;;;;4.10;1.30;;;;;;;;;;5022220;28;20033;-80
2021/04/09 13:31:02;;;;;;;2.35;1.15;;;;;;;;;;5027172;28;20021;-80
2021/04/09 13:33:30;;;;;;;3.75;1.23;;;;;;;;;;5024415;28;20053;-78
2021/04/09 13:35:57;;;;;;;5.30;1.10;;;;;;;;;;5018498;28;20112;-79
2021/04/09 13:38:24;;;;;;;2.80;1.10;;;;;;;;;;5019758;28;20033;-78
2021/04/09 13:40:50;;;;;;;5.68;2.13;;;;;;;;;;5023069;28;20069;-78
2021/04/09 13:43:19;;;;;;;6.13;1.10;;;;;;;;;;5023022;28;20077;-78
2021/04/09 13:45:47;;;;;;;3.25;1.20;;;;;;;;;;5022175;28;20053;-80
2021/04/09 13:48:13;;;;;;;3.15;1.33;;;;;;;;;;5017803;28;20036;-79
2021/04/09 13:50:39;;;;;;;4.57;1.23;;;;;;;;;;5020800;28;20067;-81
2021/04/09 13:53:04;;;;;;;2.35;1.10;;;;;;;;;;5028122;28;20053;-78
2021/04/09 13:55:30;;;;;;;4.97;1.48;;;;;;;;;;5019610;28;20430;-77
2021/04/09 13:57:56;;;;;;;3.67;1.33;;;;;;;;;;5021059;28;20491;-78
2021/04/09 14:00:22;;;;;;;3.30;1.50;;;;;;;;;;5022433;28;20073;-80
2021/04/09 14:02:48;;;;;;;4.00;1.50;;;;;;;;;;5021117;28;20108;-78
2021/04/09 14:05:14;;;;;;;3.03;1.10;;;;;;;;;;5020189;28;20017;-77
2021/04/09 14:07:40;;;;;;;2.03;1.33;;;;;;;;;;5016745;28;20025;-79
2021/04/09 14:10:07;;;;;;;2.47;1.30;;;;;;;;;;5028271;28;20116;-78
2021/04/09 14:12:33;;;;;;;3.25;2.13;;;;;;;;;;5034157;28;20026;-77
2021/04/09 14:14:58;;;;;;;3.50;1.42;;;;;;;;;;5031682;28;20036;-80
2021/04/09 14:17:24;;;;;;;4.10;1.15;;;;;;;;;;5025920;28;20029;-81
2021/04/09 14:19:49;;;;;;;2.20;1.30;;;;;;;;;;5033297;28;20044;-80
2021/04/09 14:22:15;;;;;;;3.33;1.45;;;;;;;;;;5032878;28;20083;-80
2021/04/09 14:24:41;;;;;;;3.05;1.25;;;;;;;;;;5033212;28;20112;-78
2021/04/09 14:27:08;;;;;;;3.92;1.10;;;;;;;;;;5032844;28;20026;-80
2021/04/09 14:29:34;;;;;;;5.57;1.10;;;;;;;;;;5032418;28;20088;-77
2021/04/09 14:32:00;;;;;;;3.50;1.35;;;;;;;;;;5033080;28;20022;-81
2021/04/09 14:34:25;;;;;;;3.13;1.40;;;;;;;;;;5026738;28;20057;-80
2021/04/09 14:36:51;;;;;;;4.13;1.50;;;;;;;;;;5016812;28;20082;-78
2021/04/09 14:39:17;;;;;;;4.10;1.30;;;;;;;;;;5024155;28;20132;-80
2021/04/09 14:41:42;;;;;;;5.05;1.58;;;;;;;;;;5032312;28;20079;-80
2021/04/09 14:44:11;;;;;;;5.03;1.40;;;;;;;;;;5031171;28;20037;-79
2021/04/09 14:46:40;;;;;;;5.47;1.30;;;;;;;;;;5032485;28;20099;-78
2021/04/09 14:49:06;;;;;;;6.53;1.15;;;;;;;;;;5032832;28;20040;-78
2021/04/09 14:51:33;;;;;;;3.08;1.10;;;;;;;;;;5018886;28;20021;-81
2021/04/09 14:53:59;;;;;;;3.97;1.10;;;;;;;;;;5013090;28;20060;-78